Flight Track Log - Related Links

Times and Time Zones

All times are in EDT time to prevent confusion due to time zone crossing. See the FIV521 flight status page for this flight to view local times or setup timezone preferences in your user account.

Time Position Orientation Groundspeed Altitude Reporting Facility
EDT Latitude Longitude Course Direction KTS MPH feet Rate Location/Type
Sat 09:54:33 AM 26.3692 -80.1542 312° West 197 227 1,900  Level Miami Center
Sat 09:55:33 AM 26.4056 -80.1992 312° West 203 234 4,900 2,550 Climbing Miami Center
Sat 09:56:33 AM 26.4506 -80.2467 317° Northwest 239 275 7,000 1,050 Climbing Miami Center
Sat 09:57:33 AM 26.5075 -80.3133 314° West 274 315 7,000 450 Level Miami Center
Sat 09:58:33 AM 26.5331 -80.3744 295° West 298 343 7,900 1,400 Climbing Miami Center
Sat 09:59:33 AM 26.5539 -80.4658 284° West 281 323 9,800 1,050 Climbing Miami Center
Sat 10:00:33 AM 26.5497 -80.5514 267° West 297 342 10,000 100 Climbing Miami Center
Sat 10:01:33 AM 26.5342 -80.6672 261° West 340 391 10,000  Level Miami Center
Sat 10:02:33 AM 26.5025 -80.7519 247° West 345 397 10,000 -100 Level Miami Center
Sat 10:03:33 AM 26.4253 -80.8283 222° Southwest 332 382 9,800 -800 Descending Miami Center
Sat 10:04:33 AM 26.3922 -80.8967 242° Southwest 299 344 8,400 -900 Descending Miami Center
Sat 10:05:33 AM 26.3708 -80.9864 255° West 277 319 8,000 -700 Descending Miami Center
Sat 10:06:33 AM 26.3497 -81.0667 254° West 277 319 7,000 -1,000 Descending Miami Center
Sat 10:07:33 AM 26.3267 -81.1469 252° West 277 319 6,000 -550 Descending Miami Center
Sat 10:08:33 AM 26.3097 -81.2228 256° West 277 319 5,900 -50 Descending Miami Center
Sat 10:09:33 AM 26.2864 -81.3008 252° West 271 312 5,900 -400 Level Miami Center
Sat 10:10:33 AM 26.2608 -81.3856 251° West 271 312 5,100 -1,000 Descending Miami Center
Sat 10:11:33 AM 26.2400 -81.4564 252° West 271 312 3,900 -600 Descending Miami Center
Sat 10:12:33 AM 26.1986 -81.5036 226° Southwest 233 268 3,900 -50 Level Miami Center
Sat 10:13:33 AM 26.2156 -81.5667 287° West 191 220 3,800 -500 Descending Miami Center
Sat 10:14:33 AM 26.2533 -81.6214 308° West 197 227 2,900 -900 Descending Miami Center
Sat 10:16:00 AM 26.1893 -81.7115 232° Southwest  Level FlightAware Approximate
Sat 10:23:00 AM 26.1500 -81.7667 254° West  Level FlightAware Approximate
Sat 10:24:00 AM 26.1524 -81.7756 254° West  Level Estimated
Sat 10:25:00 AM 26.1524 -81.7756 254° West  Level Estimated
Sat 10:26:00 AM 26.1524 -81.7756 254° West  Level Estimated

Login

Don't have an account? Register now (free) for customized features, flight alerts, and more!